Terminal Aerodrome Forecast
Issued by NWS

Home | Current Version | Previous Version | Text Only | Print | Product List | Glossary On
Versions: 1 2 3 4 5 6 7 8 9 10 11 12 13 14
325
FTUS45 KTFX 241130
TAFHVR
TAF
KHVR 241130Z 2412/2512 33015KT P6SM SCT020 BKN100
     FM241500 32010KT P6SM FEW120
     FM250300 VRB04KT P6SM FEW150=

USA.gov is the U.S. government's official web portal to all federal, state and local government web resources and services.